Time;durP1;ratioP1;P1;durP2;ratioP2;P2;SDS_P1;SDS_P2;PMS_P1;PMS_P2;Temp;Humidity;BMP_temperature;BMP_pressure;BME280_temperature;BME280_humidity;BME280_pressure;Samples;Min_cycle;Max_cycle;Signal;HPM_P1;HPM_P2
2023/09/13 00:02:22;;;;;;;;;;;;;;;26.76;38.95;101020.00;5071008;28;1292;-25
2023/09/13 00:04:47;;;;;;;;;;;;;;;26.60;39.66;101028.16;5075535;28;891;-26
2023/09/13 00:07:12;;;;;;;;;;;;;;;26.57;39.62;101026.66;5077847;28;1174;-27
2023/09/13 00:09:41;;;;;;;;;;;;;;;26.78;39.56;101026.09;5077901;28;1039;-27
2023/09/13 00:12:09;;;;;;;;;;;;;;;26.59;40.09;101018.41;5077865;28;1039;-26
2023/09/13 00:14:35;;;;;;;;;;;;;;;26.59;39.62;101021.09;5077251;28;1109;-24
2023/09/13 00:17:00;;;;;;;;;;;;;;;26.68;39.83;101022.75;5077553;28;2303;-27
2023/09/13 00:19:30;;;;;;;;;;;;;;;26.56;40.18;101019.56;5077662;28;1055;-25
2023/09/13 00:21:55;;;;;;;;;;;;;;;26.64;40.15;101021.41;5077801;28;1063;-26
2023/09/13 00:24:21;;;;;;;;;;;;;;;26.70;39.62;101020.72;5077323;28;1150;-26
2023/09/13 00:26:46;;;;;;;;;;;;;;;26.52;40.24;101021.78;5077212;28;1093;-26
2023/09/13 00:29:12;;;;;;;;;;;;;;;26.80;39.96;101019.66;5077381;28;861;-26
2023/09/13 00:31:37;;;;;;;;;;;;;;;26.59;39.98;101015.69;5077578;28;1055;-27
2023/09/13 00:34:03;;;;;;;;;;;;;;;26.52;40.18;101029.88;5064486;28;1012;-26
2023/09/13 00:36:28;;;;;;;;;;;;;;;26.60;39.93;101018.22;5077536;28;1977;-25
2023/09/13 00:38:54;;;;;;;;;;;;;;;26.33;40.08;101020.28;5077463;28;1122;-25
2023/09/13 00:41:19;;;;;;;;;;;;;;;26.34;40.08;101026.53;5059165;28;1027;-27
2023/09/13 00:43:46;;;;;;;;;;;;;;;26.56;39.50;101027.66;5064004;28;1015;-26
2023/09/13 00:46:11;;;;;;;;;;;;;;;26.68;39.46;101025.44;5058532;28;1075;-25
2023/09/13 00:48:37;;;;;;;;;;;;;;;26.72;39.27;101029.50;5076877;28;2577;-26
2023/09/13 00:51:03;;;;;;;;;;;;;;;26.68;40.06;101019.19;5058918;28;1149;-26
2023/09/13 00:53:29;;;;;;;;;;;;;;;26.73;40.20;101022.22;5076841;28;1015;-27
2023/09/13 00:55:54;;;;;;;;;;;;;;;26.73;40.29;101022.22;5075954;28;1913;-26
2023/09/13 00:58:20;;;;;;;;;;;;;;;26.62;39.59;101015.34;5058753;28;1028;-27
2023/09/13 01:00:46;;;;;;;;;;;;;;;26.65;39.46;101018.53;5042178;28;1581;-26
2023/09/13 01:03:12;;;;;;;;;;;;;;;26.51;39.70;101014.69;5076376;28;1154;-27
2023/09/13 01:05:38;;;;;;;;;;;;;;;26.57;40.27;101015.88;5059105;28;1123;-28
2023/09/13 01:08:03;;;;;;;;;;;;;;;26.51;39.96;101011.13;5042077;28;1031;-25
2023/09/13 01:10:29;;;;;;;;;;;;;;;26.47;39.80;101015.22;5058669;28;1161;-27
2023/09/13 01:12:54;;;;;;;;;;;;;;;26.90;38.95;101009.50;5058615;28;1036;-28
2023/09/13 01:15:20;;;;;;;;;;;;;;;26.74;38.93;101013.94;5076300;28;1909;-30
2023/09/13 01:17:48;;;;;;;;;;;;;;;26.69;39.33;101013.66;5076448;28;2469;-29
2023/09/13 01:20:37;;;;;;;;;;;;;;;26.46;39.72;101013.53;5056861;28;933;-25
2023/09/13 01:23:10;;;;;;;;;;;;;;;26.48;39.65;101017.75;5063333;28;1252;-26
2023/09/13 01:25:45;;;;;;;;;;;;;;;26.35;39.53;101012.88;5038804;28;1097;-27
2023/09/13 01:28:10;;;;;;;;;;;;;;;26.62;39.43;101010.81;5074782;28;1052;-27
2023/09/13 01:30:36;;;;;;;;;;;;;;;26.38;40.05;101000.91;5076076;28;1149;-27
2023/09/13 01:33:02;;;;;;;;;;;;;;;26.33;40.58;101004.09;5058615;28;1162;-30
2023/09/13 01:35:28;;;;;;;;;;;;;;;26.31;40.32;101011.50;5076259;28;1906;-27
2023/09/13 01:37:54;;;;;;;;;;;;;;;26.33;40.74;101009.50;5058468;28;1216;-26
2023/09/13 01:40:20;;;;;;;;;;;;;;;26.24;40.67;101003.25;5075956;28;1118;-28
2023/09/13 01:42:46;;;;;;;;;;;;;;;26.32;40.71;101005.09;5058368;28;1047;-25
2023/09/13 01:45:11;;;;;;;;;;;;;;;26.34;40.69;101004.97;5076006;28;1091;-26
2023/09/13 01:47:41;;;;;;;;;;;;;;;26.53;40.26;101001.88;5040231;28;1948;-31
2023/09/13 01:50:07;;;;;;;;;;;;;;;26.39;40.60;101008.00;5037717;28;1182;-27
2023/09/13 01:52:32;;;;;;;;;;;;;;;26.49;40.14;101007.81;5074266;28;1066;-27
2023/09/13 01:54:58;;;;;;;;;;;;;;;26.33;40.39;101006.81;5076157;28;1113;-30
2023/09/13 01:57:23;;;;;;;;;;;;;;;26.32;40.52;101002.41;5075718;28;1910;-25
2023/09/13 01:59:49;;;;;;;;;;;;;;;26.46;40.19;101008.97;5058227;28;1123;-26
2023/09/13 02:02:14;;;;;;;;;;;;;;;26.59;39.86;100991.41;5058029;28;1108;-28
2023/09/13 02:04:40;;;;;;;;;;;;;;;26.63;40.03;100993.59;5075618;28;1068;-26
2023/09/13 02:07:05;;;;;;;;;;;;;;;26.53;39.94;100995.63;5061983;28;1082;-25
2023/09/13 02:09:31;;;;;;;;;;;;;;;26.53;40.11;101001.03;5057722;28;1123;-27
2023/09/13 02:11:56;;;;;;;;;;;;;;;26.64;39.84;100997.13;5075924;28;1145;-26
2023/09/13 02:14:21;;;;;;;;;;;;;;;26.69;39.79;100992.06;5076001;28;1159;-28
2023/09/13 02:16:47;;;;;;;;;;;;;;;26.47;39.10;100996.34;5057198;28;1949;-28
2023/09/13 02:19:13;;;;;;;;;;;;;;;26.14;38.57;101000.72;5063556;28;2152;-28
2023/09/13 02:21:38;;;;;;;;;;;;;;;26.26;38.64;100998.53;5060880;28;1060;-25
2023/09/13 02:24:04;;;;;;;;;;;;;;;26.14;39.12;101002.59;5063807;28;1113;-25
2023/09/13 02:26:31;;;;;;;;;;;;;;;26.16;39.34;101001.41;5074810;28;988;-26
2023/09/13 02:28:56;;;;;;;;;;;;;;;26.45;39.09;100999.19;5057028;28;1007;-27
2023/09/13 02:31:25;;;;;;;;;;;;;;;26.41;39.44;100996.00;5062318;28;1132;-28
2023/09/13 02:33:51;;;;;;;;;;;;;;;26.23;40.25;100989.94;5029273;28;1121;-27
2023/09/13 02:36:17;;;;;;;;;;;;;;;26.12;40.59;101001.94;5056288;28;1910;-30
2023/09/13 02:38:42;;;;;;;;;;;;;;;26.28;39.97;101003.75;5057506;28;1058;-29
2023/09/13 02:41:08;;;;;;;;;;;;;;;26.33;40.70;100995.16;5057293;28;1344;-27
2023/09/13 02:43:33;;;;;;;;;;;;;;;26.57;39.81;101002.38;5057395;28;1226;-25
2023/09/13 02:45:59;;;;;;;;;;;;;;;26.50;39.87;100991.44;5057502;28;1239;-31
2023/09/13 02:48:25;;;;;;;;;;;;;;;26.47;40.02;100999.88;5057517;28;2176;-26
2023/09/13 02:50:51;;;;;;;;;;;;;;;26.35;39.88;100990.44;5057608;28;1336;-27
2023/09/13 02:53:17;;;;;;;;;;;;;;;26.39;40.36;100997.19;5057031;28;1183;-26
2023/09/13 02:55:42;;;;;;;;;;;;;;;26.55;40.38;100992.75;5075211;28;1902;-25
2023/09/13 02:58:08;;;;;;;;;;;;;;;26.44;40.02;100999.38;5067809;28;1121;-27
2023/09/13 03:00:34;;;;;;;;;;;;;;;26.49;39.55;101003.22;5059576;28;1137;-28
2023/09/13 03:03:00;;;;;;;;;;;;;;;26.52;40.13;101004.75;5057158;28;1393;-27
2023/09/13 03:05:26;;;;;;;;;;;;;;;26.62;39.98;101004.56;5057103;28;1170;-24
2023/09/13 03:07:53;;;;;;;;;;;;;;;26.47;40.04;101005.28;5046054;28;1708;-30
2023/09/13 03:10:20;;;;;;;;;;;;;;;26.46;40.57;101003.56;5055822;28;1369;-25
2023/09/13 03:12:45;;;;;;;;;;;;;;;26.63;40.34;101008.91;5056995;28;1450;-27
2023/09/13 03:15:11;;;;;;;;;;;;;;;26.36;39.99;101005.63;5056975;28;1971;-27
2023/09/13 03:17:36;;;;;;;;;;;;;;;25.67;40.82;101005.78;5056800;28;1835;-26
2023/09/13 03:20:02;;;;;;;;;;;;;;;25.41;41.66;101008.56;5065323;28;1108;-25
2023/09/13 03:22:30;;;;;;;;;;;;;;;25.49;41.02;101005.91;5060848;28;1410;-25
2023/09/13 03:24:56;;;;;;;;;;;;;;;25.48;40.94;101004.22;5078825;28;1170;-28
2023/09/13 03:27:22;;;;;;;;;;;;;;;25.24;41.40;101005.84;5060977;28;1171;-26
2023/09/13 03:29:47;;;;;;;;;;;;;;;25.26;41.36;100998.44;5060453;28;1170;-27
2023/09/13 03:32:13;;;;;;;;;;;;;;;25.50;41.16;101006.75;5048605;28;1027;-25
2023/09/13 03:34:39;;;;;;;;;;;;;;;25.43;40.70;101009.25;5059134;28;1386;-26
2023/09/13 03:37:06;;;;;;;;;;;;;;;25.39;41.32;101007.94;5078240;28;1985;-25
2023/09/13 03:39:31;;;;;;;;;;;;;;;25.29;41.58;101008.06;5078753;28;1176;-28
2023/09/13 03:41:57;;;;;;;;;;;;;;;25.28;41.95;101009.91;5059538;28;1415;-26
2023/09/13 03:44:23;;;;;;;;;;;;;;;25.25;41.93;101010.25;5047887;28;1114;-29
2023/09/13 03:46:49;;;;;;;;;;;;;;;25.27;41.79;101010.06;5060036;28;1189;-26
2023/09/13 03:49:14;;;;;;;;;;;;;;;25.29;41.71;101008.88;5060444;28;2510;-26
2023/09/13 03:51:40;;;;;;;;;;;;;;;25.23;41.72;101009.56;5059961;28;1126;-29
2023/09/13 03:54:06;;;;;;;;;;;;;;;25.41;41.04;101016.66;5059897;28;893;-29
2023/09/13 03:56:31;;;;;;;;;;;;;;;25.38;40.94;101014.28;5060074;28;1981;-30
2023/09/13 03:58:57;;;;;;;;;;;;;;;25.57;40.21;101021.25;5078366;28;1083;-29
2023/09/13 04:01:24;;;;;;;;;;;;;;;25.64;40.10;101011.50;5059632;28;1165;-27
2023/09/13 04:03:49;;;;;;;;;;;;;;;25.59;40.38;101013.00;5059892;28;1112;-28
2023/09/13 04:06:15;;;;;;;;;;;;;;;25.61;40.39;101009.13;5077181;28;1015;-31
2023/09/13 04:08:40;;;;;;;;;;;;;;;25.63;40.64;101015.22;5059894;28;1048;-28
2023/09/13 04:11:06;;;;;;;;;;;;;;;26.17;39.32;101023.84;5077840;28;1011;-31
2023/09/13 04:13:32;;;;;;;;;;;;;;;26.29;39.30;101021.63;5078008;28;1035;-28
2023/09/13 04:16:02;;;;;;;;;;;;;;;26.52;38.66;101023.63;5059469;28;1906;-30
2023/09/13 04:18:28;;;;;;;;;;;;;;;26.53;38.91;101023.47;5056602;28;1860;-31
2023/09/13 04:20:54;;;;;;;;;;;;;;;26.41;39.25;101022.13;5059787;28;1272;-27
2023/09/13 04:23:19;;;;;;;;;;;;;;;26.50;38.64;101022.97;5059364;28;1074;-30
2023/09/13 04:25:45;;;;;;;;;;;;;;;26.38;38.85;101012.53;5077330;28;1011;-33
2023/09/13 04:28:12;;;;;;;;;;;;;;;26.72;38.48;101028.63;5059697;28;1391;-28
2023/09/13 04:30:38;;;;;;;;;;;;;;;26.60;38.99;101029.00;5059058;28;1374;-29
2023/09/13 04:33:06;;;;;;;;;;;;;;;26.63;38.60;101028.66;5059071;28;1247;-30
2023/09/13 04:35:32;;;;;;;;;;;;;;;26.55;38.97;101033.22;5056312;28;1926;-27
2023/09/13 04:37:58;;;;;;;;;;;;;;;26.63;38.55;101035.91;5076284;28;1147;-28
2023/09/13 04:40:24;;;;;;;;;;;;;;;26.67;38.93;101028.31;5058702;28;1164;-30
2023/09/13 04:43:14;;;;;;;;;;;;;;;26.69;38.95;101027.13;5048989;28;1106;-28
2023/09/13 04:45:40;;;;;;;;;;;;;;;26.69;39.08;101035.25;5053686;28;1727;-29
2023/09/13 04:48:05;;;;;;;;;;;;;;;26.64;38.91;101027.63;5058677;28;2526;-26
2023/09/13 04:50:31;;;;;;;;;;;;;;;26.67;38.75;101029.16;5063659;28;1175;-30
2023/09/13 04:52:56;;;;;;;;;;;;;;;26.74;38.74;101027.44;5051568;28;1281;-28
2023/09/13 04:55:23;;;;;;;;;;;;;;;26.84;38.83;101029.94;5054415;28;1910;-30
2023/09/13 04:57:50;;;;;;;;;;;;;;;26.87;38.64;101032.31;5047319;28;1294;-32
2023/09/13 05:00:16;;;;;;;;;;;;;;;26.78;39.06;101030.63;5047569;28;1356;-29
2023/09/13 05:02:41;;;;;;;;;;;;;;;26.80;38.92;101023.22;5050493;28;1266;-28
2023/09/13 05:05:08;;;;;;;;;;;;;;;26.84;38.70;101027.22;5042390;28;2343;-32
2023/09/13 05:07:33;;;;;;;;;;;;;;;26.95;38.81;101035.97;5065418;28;1222;-29
2023/09/13 05:09:59;;;;;;;;;;;;;;;27.00;38.72;101036.28;5065022;28;1250;-30
2023/09/13 05:12:24;;;;;;;;;;;;;;;26.96;38.91;101027.69;5076484;28;955;-32
2023/09/13 05:14:50;;;;;;;;;;;;;;;26.69;39.27;101042.47;5077179;28;1016;-28
2023/09/13 05:17:15;;;;;;;;;;;;;;;26.74;39.35;101040.94;5071706;28;2308;-28
2023/09/13 05:19:41;;;;;;;;;;;;;;;27.01;38.67;101037.97;5076783;28;1039;-29
2023/09/13 05:22:06;;;;;;;;;;;;;;;27.06;39.06;101037.50;5075419;28;1175;-31
2023/09/13 05:24:32;;;;;;;;;;;;;;;27.16;38.57;101039.97;5076315;28;1034;-30
2023/09/13 05:26:57;;;;;;;;;;;;;;;27.09;38.90;101034.44;5076240;28;1113;-33
2023/09/13 05:29:23;;;;;;;;;;;;;;;27.18;38.82;101043.31;5075546;28;1073;-30
2023/09/13 05:31:49;;;;;;;;;;;;;;;27.20;39.24;101044.00;5076168;28;1007;-30
2023/09/13 05:34:14;;;;;;;;;;;;;;;27.13;38.97;101052.81;5075961;28;1074;-31
2023/09/13 05:36:41;;;;;;;;;;;;;;;27.26;38.47;101049.53;5069602;28;1914;-28
2023/09/13 05:39:07;;;;;;;;;;;;;;;27.17;38.87;101050.59;5071211;28;1082;-28
2023/09/13 05:41:32;;;;;;;;;;;;;;;27.32;38.91;101052.53;5075527;28;1065;-34
2023/09/13 05:43:58;;;;;;;;;;;;;;;27.33;38.92;101056.91;5076067;28;1142;-29
2023/09/13 05:46:23;;;;;;;;;;;;;;;27.21;38.71;101059.19;5076486;28;1051;-32
2023/09/13 05:48:49;;;;;;;;;;;;;;;27.36;38.53;101052.00;5076159;28;2525;-28
2023/09/13 05:51:14;;;;;;;;;;;;;;;27.39;38.18;101058.94;5075934;28;1148;-34
2023/09/13 05:53:40;;;;;;;;;;;;;;;27.43;38.09;101059.41;5076170;28;1070;-29
2023/09/13 05:56:09;;;;;;;;;;;;;;;27.33;38.23;101065.03;5076112;28;1910;-31
2023/09/13 05:58:35;;;;;;;;;;;;;;;27.39;38.18;101057.06;5076181;28;1007;-30
2023/09/13 06:01:00;;;;;;;;;;;;;;;27.37;38.30;101055.56;5075785;28;1138;-30
2023/09/13 06:03:26;;;;;;;;;;;;;;;27.42;37.88;101057.72;5058486;28;1273;-30
2023/09/13 06:05:51;;;;;;;;;;;;;;;27.48;37.83;101054.31;5075756;28;1110;-31
2023/09/13 06:08:17;;;;;;;;;;;;;;;27.34;37.74;101053.22;5075713;28;1524;-29
2023/09/13 06:10:43;;;;;;;;;;;;;;;27.48;37.84;101054.31;5075965;28;1011;-30
2023/09/13 06:13:08;;;;;;;;;;;;;;;27.57;37.64;101057.81;5075544;28;1042;-29
2023/09/13 06:15:34;;;;;;;;;;;;;;;27.36;38.13;101060.13;5075494;28;1990;-31
2023/09/13 06:17:59;;;;;;;;;;;;;;;27.57;37.58;101064.06;5075260;28;2234;-30
2023/09/13 06:20:25;;;;;;;;;;;;;;;27.49;37.65;101058.72;5075682;28;1102;-31
2023/09/13 06:22:50;;;;;;;;;;;;;;;27.57;37.50;101065.91;5076036;28;1139;-29
2023/09/13 06:25:17;;;;;;;;;;;;;;;27.67;37.53;101068.38;5075706;28;1086;-28
2023/09/13 06:27:43;;;;;;;;;;;;;;;27.55;37.75;101059.84;5075828;28;1051;-32
2023/09/13 06:30:09;;;;;;;;;;;;;;;27.70;37.44;101058.09;5075780;28;1080;-30
2023/09/13 06:32:34;;;;;;;;;;;;;;;27.74;37.00;101061.28;5075569;28;1073;-32
2023/09/13 06:34:59;;;;;;;;;;;;;;;27.70;37.44;101068.91;5056392;28;1305;-28
2023/09/13 06:37:25;;;;;;;;;;;;;;;27.68;37.29;101068.22;5075835;28;1981;-30
2023/09/13 06:39:51;;;;;;;;;;;;;;;27.60;37.63;101084.47;5075790;28;1103;-30
2023/09/13 06:42:16;;;;;;;;;;;;;;;27.80;37.44;101081.31;5074477;28;1035;-28
2023/09/13 06:44:42;;;;;;;;;;;;;;;27.67;37.13;101080.03;5063080;28;987;-28
2023/09/13 06:47:07;;;;;;;;;;;;;;;27.71;37.30;101085.97;5075383;28;2526;-31
2023/09/13 06:49:35;;;;;;;;;;;;;;;27.72;37.55;101074.97;5050833;28;945;-31
2023/09/13 06:52:00;;;;;;;;;;;;;;;27.76;37.74;101083.53;5069433;28;1210;-29
2023/09/13 06:54:25;;;;;;;;;;;;;;;27.73;37.38;101079.34;5079033;28;1080;-31
2023/09/13 06:56:51;;;;;;;;;;;;;;;27.73;37.59;101081.19;5067811;28;1898;-29
2023/09/13 06:59:16;;;;;;;;;;;;;;;27.70;37.53;101078.88;5077103;28;1052;-29
2023/09/13 07:01:42;;;;;;;;;;;;;;;27.78;36.90;101075.28;5078937;28;1027;-29
2023/09/13 07:04:08;;;;;;;;;;;;;;;27.93;36.35;101076.16;5078745;28;1098;-28
2023/09/13 07:06:33;;;;;;;;;;;;;;;27.90;36.26;101076.53;5079027;28;999;-33
2023/09/13 07:08:58;;;;;;;;;;;;;;;27.90;36.45;101072.97;5073852;28;1090;-28
2023/09/13 07:11:25;;;;;;;;;;;;;;;27.71;36.09;101078.69;5070442;28;1016;-31
2023/09/13 07:13:51;;;;;;;;;;;;;;;27.93;35.79;101086.13;5078635;28;1437;-28
2023/09/13 07:16:16;;;;;;;;;;;;;;;27.84;36.10;101088.06;5078864;28;1910;-28
2023/09/13 07:18:42;;;;;;;;;;;;;;;27.82;36.30;101082.84;5078350;28;2264;-28
2023/09/13 07:21:07;;;;;;;;;;;;;;;27.90;36.23;101087.34;5078641;28;1449;-32
2023/09/13 07:23:33;;;;;;;;;;;;;;;27.94;36.14;101085.13;5065216;28;1035;-30
2023/09/13 07:25:59;;;;;;;;;;;;;;;27.93;36.01;101088.84;5078597;28;1412;-33
2023/09/13 07:28:25;;;;;;;;;;;;;;;27.96;35.93;101085.78;5078910;28;1133;-28
2023/09/13 07:30:50;;;;;;;;;;;;;;;27.91;35.99;101088.19;5078706;28;1154;-33
2023/09/13 07:33:16;;;;;;;;;;;;;;;27.95;36.05;101084.94;5078126;28;1094;-28
2023/09/13 07:35:41;;;;;;;;;;;;;;;27.94;35.74;101095.94;5078583;28;1898;-30
2023/09/13 07:38:07;;;;;;;;;;;;;;;27.91;35.87;101082.78;5071793;28;1086;-30
2023/09/13 07:40:32;;;;;;;;;;;;;;;27.94;35.98;101088.69;5064275;28;1076;-28
2023/09/13 07:42:59;;;;;;;;;;;;;;;28.04;35.86;101090.28;5078314;28;1181;-27
2023/09/13 07:45:24;;;;;;;;;;;;;;;28.02;35.67;101084.22;5077704;28;1095;-27
2023/09/13 07:47:50;;;;;;;;;;;;;;;27.99;35.33;101086.25;5071180;28;1842;-28
2023/09/13 07:50:29;;;;;;;;;;;;;;;28.12;35.29;101092.94;5074987;28;1021;-29
2023/09/13 07:52:54;;;;;;;;;;;;;;;28.06;35.59;101091.78;5066448;28;1183;-26
2023/09/13 07:55:19;;;;;;;;;;;;;;;28.07;35.66;101081.81;5075965;28;1055;-30
2023/09/13 07:57:45;;;;;;;;;;;;;;;28.08;35.55;101080.78;5077371;28;1914;-27
2023/09/13 08:00:11;;;;;;;;;;;;;;;28.28;35.58;101085.72;5077248;28;1059;-30
2023/09/13 08:02:37;;;;;;;;;;;;;;;28.17;35.75;101085.13;5077929;28;1019;-30
2023/09/13 08:05:03;;;;;;;;;;;;;;;28.18;35.89;101086.78;5077622;28;1083;-29
2023/09/13 08:07:29;;;;;;;;;;;;;;;28.19;35.67;101080.38;5077614;28;1058;-30
2023/09/13 08:09:55;;;;;;;;;;;;;;;28.15;36.08;101086.31;5078369;28;1091;-29
2023/09/13 08:12:20;;;;;;;;;;;;;;;28.07;36.44;101081.81;5077500;28;1034;-27
2023/09/13 08:14:46;;;;;;;;;;;;;;;28.09;36.51;101075.19;5075944;28;1088;-26
2023/09/13 08:17:11;;;;;;;;;;;;;;;28.14;36.58;101071.97;5070755;28;2284;-27
2023/09/13 08:19:37;;;;;;;;;;;;;;;28.23;36.17;101073.56;5076262;28;1203;-28
2023/09/13 08:22:04;;;;;;;;;;;;;;;28.24;36.41;101072.53;5064190;28;1222;-26
2023/09/13 08:24:31;;;;;;;;;;;;;;;28.32;35.91;101073.47;5077491;28;991;-28
2023/09/13 08:26:57;;;;;;;;;;;;;;;28.50;35.03;101069.59;5077656;28;1090;-27
2023/09/13 08:29:22;;;;;;;;;;;;;;;28.47;35.01;101074.38;5077486;28;986;-28
2023/09/13 08:31:48;;;;;;;;;;;;;;;28.53;35.64;101070.09;5077148;28;1127;-30
2023/09/13 08:34:13;;;;;;;;;;;;;;;28.50;35.35;101064.19;5077595;28;1098;-30
2023/09/13 08:36:39;;;;;;;;;;;;;;;28.22;36.29;101071.88;5072360;28;1917;-28
2023/09/13 08:39:05;;;;;;;;;;;;;;;28.25;36.11;101070.66;5067821;28;1246;-28
2023/09/13 08:41:30;;;;;;;;;;;;;;;28.09;36.70;101067.06;5068599;28;1139;-30
2023/09/13 08:43:56;;;;;;;;;;;;;;;28.14;36.39;101060.28;5057914;28;909;-29
2023/09/13 08:46:21;;;;;;;;;;;;;;;28.18;36.27;101061.59;5070300;28;1210;-27
2023/09/13 08:48:47;;;;;;;;;;;;;;;28.13;36.17;101059.44;5066064;28;1832;-29
2023/09/13 08:51:12;;;;;;;;;;;;;;;28.21;36.40;101053.97;5058004;28;1230;-28
2023/09/13 08:53:38;;;;;;;;;;;;;;;28.36;35.97;101058.59;5058023;28;1037;-27
2023/09/13 08:56:05;;;;;;;;;;;;;;;28.44;35.64;101061.22;5057139;28;1914;-29
2023/09/13 08:58:31;;;;;;;;;;;;;;;28.48;36.00;101056.25;5064061;28;1207;-32
2023/09/13 09:00:56;;;;;;;;;;;;;;;28.53;35.67;101061.16;5064655;28;1202;-32
2023/09/13 09:03:22;;;;;;;;;;;;;;;28.70;35.17;101061.78;5072135;28;1318;-32
2023/09/13 09:05:48;;;;;;;;;;;;;;;28.57;35.85;101065.16;5069548;28;1158;-32
2023/09/13 09:08:13;;;;;;;;;;;;;;;28.14;35.57;100963.78;5046319;28;1226;-28
2023/09/13 09:10:40;;;;;;;;;;;;;;;28.95;34.61;101059.66;5076956;28;1010;-27
2023/09/13 09:13:06;;;;;;;;;;;;;;;28.95;35.31;101056.09;5058681;28;1298;-28
2023/09/13 09:15:32;;;;;;;;;;;;;;;28.97;34.82;101054.06;5057461;28;1988;-30
2023/09/13 09:17:57;;;;;;;;;;;;;;;28.95;35.38;101058.78;5070328;28;2284;-28
2023/09/13 09:20:29;;;;;;;;;;;;;;;29.07;35.16;101054.63;5059915;28;1119;-28
2023/09/13 09:22:56;;;;;;;;;;;;;;;29.04;35.11;101056.88;5071001;28;1178;-29
2023/09/13 09:25:21;;;;;;;;;;;;;;;29.01;35.20;101051.84;5056573;28;1304;-28
2023/09/13 09:27:47;;;;;;;;;;;;;;;29.19;34.76;101057.69;5060312;28;1055;-27
2023/09/13 09:30:14;;;;;;;;;;;;;;;29.21;34.65;101055.63;5065875;28;1218;-33
2023/09/13 09:32:40;;;;;;;;;;;;;;;29.19;34.76;101052.28;5070948;28;1083;-30
2023/09/13 09:35:06;;;;;;;;;;;;;;;29.15;35.05;101053.66;5045799;28;1235;-29
2023/09/13 09:37:32;;;;;;;;;;;;;;;29.25;34.85;101052.53;5075617;28;1975;-28
2023/09/13 09:39:57;;;;;;;;;;;;;;;29.30;34.36;101048.22;5064892;28;1237;-27
2023/09/13 09:42:23;;;;;;;;;;;;;;;29.18;34.68;101053.28;5062956;28;1111;-29
2023/09/13 09:44:48;;;;;;;;;;;;;;;29.28;34.56;101042.16;5072032;28;1241;-28
2023/09/13 09:47:14;;;;;;;;;;;;;;;29.28;34.59;101052.16;5064374;28;2348;-28
2023/09/13 09:49:40;;;;;;;;;;;;;;;29.19;34.71;101051.44;5064586;28;1250;-29
2023/09/13 09:52:07;;;;;;;;;;;;;;;29.36;34.51;101049.34;5062226;28;1163;-30
2023/09/13 09:54:32;;;;;;;;;;;;;;;29.25;34.72;101052.53;5055299;28;1205;-29
2023/09/13 09:56:58;;;;;;;;;;;;;;;29.20;34.60;101053.09;5045321;28;1902;-28
2023/09/13 09:59:28;;;;;;;;;;;;;;;29.19;35.03;101055.00;5051337;28;1250;-28
2023/09/13 10:01:57;;;;;;;;;;;;;;;29.32;34.96;101043.47;5069561;28;1317;-28
2023/09/13 10:04:23;;;;;;;;;;;;;;;29.40;34.61;101055.19;5064958;28;1211;-30
2023/09/13 10:06:59;;;;;;;;;;;;;;;29.34;34.54;101046.78;5063648;28;1202;-26
2023/09/13 10:09:35;;;;;;;;;;;;;;;29.39;34.29;101040.81;5068825;28;965;-30
2023/09/13 10:12:01;;;;;;;;;;;;;;;29.36;34.62;101035.78;5064323;28;1360;-28
2023/09/13 10:14:27;;;;;;;;;;;;;;;29.39;34.28;101039.97;5062751;28;1202;-30
2023/09/13 10:16:53;;;;;;;;;;;;;;;29.32;34.47;101040.75;5069411;28;1960;-27
2023/09/13 10:19:19;;;;;;;;;;;;;;;29.46;34.37;101043.59;5055466;28;2630;-29
2023/09/13 10:21:45;;;;;;;;;;;;;;;29.20;35.10;101051.22;5059918;28;1032;-27
2023/09/13 10:24:10;;;;;;;;;;;;;;;29.08;35.36;101041.91;5075528;28;1004;-29
2023/09/13 10:26:36;;;;;;;;;;;;;;;29.24;34.44;101042.72;5057725;28;1384;-32
2023/09/13 10:29:11;;;;;;;;;;;;;;;29.25;34.89;101042.53;5052409;28;1229;-31
2023/09/13 10:31:39;;;;;;;;;;;;;;;29.34;34.72;101049.50;5066396;28;1016;-29
2023/09/13 10:34:06;;;;;;;;;;;;;;;29.36;34.72;101048.50;5074850;28;1181;-30
2023/09/13 10:36:33;;;;;;;;;;;;;;;29.54;34.41;101051.63;5048715;28;1989;-26
2023/09/13 10:39:00;;;;;;;;;;;;;;;29.62;34.17;101047.97;5061504;28;1146;-28
2023/09/13 10:41:26;;;;;;;;;;;;;;;29.49;34.49;101043.22;5080045;28;1018;-27
2023/09/13 10:43:52;;;;;;;;;;;;;;;29.62;34.39;101052.53;5067571;28;1097;-29
2023/09/13 10:46:17;;;;;;;;;;;;;;;29.46;34.85;101046.31;5061656;28;1062;-27
2023/09/13 10:48:44;;;;;;;;;;;;;;;29.29;35.11;101046.56;5079011;28;2533;-29
2023/09/13 10:51:09;;;;;;;;;;;;;;;29.34;34.75;101040.56;5061858;28;1031;-29
2023/09/13 10:53:35;;;;;;;;;;;;;;;29.21;35.00;101043.97;5047929;28;1082;-28
2023/09/13 10:56:00;;;;;;;;;;;;;;;29.34;34.81;101040.56;5056935;28;1983;-29
2023/09/13 10:58:26;;;;;;;;;;;;;;;29.52;34.63;101033.84;5079286;28;1141;-29
2023/09/13 11:00:53;;;;;;;;;;;;;;;29.47;34.77;101034.44;5061258;28;1232;-27
2023/09/13 11:03:18;;;;;;;;;;;;;;;29.58;34.42;101033.06;5065662;28;1098;-28
2023/09/13 11:05:46;;;;;;;;;;;;;;;29.54;34.45;101031.78;5053909;28;1090;-29
2023/09/13 11:08:24;;;;;;;;;;;;;;;29.67;34.57;101028.41;5053314;28;1103;-27
2023/09/13 11:10:49;;;;;;;;;;;;;;;29.53;34.97;101022.81;5051991;28;1202;-28
2023/09/13 11:13:15;;;;;;;;;;;;;;;29.59;34.62;101026.66;5062035;28;1183;-31
2023/09/13 11:15:47;;;;;;;;;;;;;;;29.64;34.67;101024.22;5070174;28;1902;-26
2023/09/13 11:18:13;;;;;;;;;;;;;;;29.52;34.65;101020.31;5067894;28;2360;-28
2023/09/13 11:20:40;;;;;;;;;;;;;;;29.49;35.19;101016.13;5053909;28;1290;-31
2023/09/13 11:23:05;;;;;;;;;;;;;;;29.60;34.97;101013.94;5064690;28;1132;-28
2023/09/13 11:25:38;;;;;;;;;;;;;;;29.55;34.88;101011.78;5068752;28;1235;-27
2023/09/13 11:28:05;;;;;;;;;;;;;;;29.77;34.77;101014.53;5073186;28;1332;-30
2023/09/13 11:31:01;;;;;;;;;;;;;;;29.73;34.67;101015.97;5069753;28;1203;-26
2023/09/13 11:33:27;;;;;;;;;;;;;;;29.81;34.47;101015.81;5056223;28;1600;-27
2023/09/13 11:35:53;;;;;;;;;;;;;;;29.64;34.90;101012.53;5066965;28;1956;-29
2023/09/13 11:38:19;;;;;;;;;;;;;;;29.73;34.55;101018.66;5066792;28;1257;-33
2023/09/13 11:40:46;;;;;;;;;;;;;;;29.81;34.59;101015.81;5077735;28;1122;-28
2023/09/13 11:43:11;;;;;;;;;;;;;;;29.55;35.07;101006.34;5077909;28;1105;-28
2023/09/13 11:45:39;;;;;;;;;;;;;;;29.48;35.27;101009.00;5067348;28;1054;-32
2023/09/13 11:48:04;;;;;;;;;;;;;;;29.34;35.52;101000.72;5078191;28;1800;-28
2023/09/13 11:50:41;;;;;;;;;;;;;;;29.39;35.58;101004.75;5065932;28;1234;-28
2023/09/13 11:53:09;;;;;;;;;;;;;;;29.36;35.52;101005.13;5074511;28;1035;-32
2023/09/13 11:55:39;;;;;;;;;;;;;;;29.35;35.40;101007.00;5069715;28;1997;-31
2023/09/13 11:58:04;;;;;;;;;;;;;;;29.43;35.33;101015.00;5077957;28;1051;-29
2023/09/13 12:00:30;;;;;;;;;;;;;;;29.44;35.41;101005.88;5060133;28;1038;-30
2023/09/13 12:02:56;;;;;;;;;;;;;;;29.35;35.76;101004.28;5077737;28;1136;-31
2023/09/13 12:05:24;;;;;;;;;;;;;;;29.43;35.30;101012.28;5078176;28;1130;-30
2023/09/13 12:07:49;;;;;;;;;;;;;;;29.31;35.05;101003.81;5077864;28;1074;-30
2023/09/13 12:10:15;;;;;;;;;;;;;;;29.36;35.44;101007.84;5077475;28;895;-27
2023/09/13 12:12:41;;;;;;;;;;;;;;;29.32;35.47;101010.94;5064701;28;1097;-29
2023/09/13 12:15:13;;;;;;;;;;;;;;;29.36;35.07;101013.25;5077885;28;1031;-30
2023/09/13 12:17:38;;;;;;;;;;;;;;;29.34;35.45;101003.44;5077439;28;1966;-28
2023/09/13 12:20:05;;;;;;;;;;;;;;;29.34;34.96;101005.34;5077810;28;1054;-29
2023/09/13 12:22:37;;;;;;;;;;;;;;;29.42;34.92;101007.91;5077546;28;1043;-28
2023/09/13 12:25:04;;;;;;;;;;;;;;;29.29;35.69;101010.47;5065672;28;1277;-30
2023/09/13 12:27:30;;;;;;;;;;;;;;;29.32;35.41;101007.38;5070629;28;1178;-31
2023/09/13 12:29:55;;;;;;;;;;;;;;;29.36;35.33;100999.72;5058136;28;1226;-29
2023/09/13 12:32:21;;;;;;;;;;;;;;;29.32;35.33;101001.97;5060728;28;1405;-27
2023/09/13 12:34:46;;;;;;;;;;;;;;;29.37;35.03;101009.50;5057760;28;1021;-30
2023/09/13 12:37:13;;;;;;;;;;;;;;;29.43;34.62;101006.03;5064308;28;1913;-29
2023/09/13 12:39:39;;;;;;;;;;;;;;;29.30;35.18;100999.44;5058229;28;1162;-27
2023/09/13 12:42:10;;;;;;;;;;;;;;;29.46;34.48;101005.66;5060319;28;1296;-30
2023/09/13 12:44:36;;;;;;;;;;;;;;;29.37;34.83;101002.22;5063338;28;1118;-30